Earle Naval Weapons Station, New Jersey
Current Conditions -  °F | °C
As of 1:15 AM on Friday 19 Dec 2014 (Local Time) from KBLM Reporting Station
Clear Clear  
Wind Chill: 28°   Ceiling: Unl
Heat Index: 36°   Visibility: 10mi
Dew Point: 23°   Wind: 12mph
Humidity: 60%   Direction: 300°WNW
Pressure: 29.97"   Gusts: 16mph
Location:  40.2834°N, 74.169°W
Report Text: KBLM 190615Z AUTO 30010G14KT 10SM CLR 02/M05 A2997 RMK AO1
Loading
Personal Weather Stations






























Interactive Weather Map New forecast layout! Learn more

10-Day Weather Forecast

Advertisements
Track Severe Weather on mobile